sensor_id;sensor_type;location;lat;lon;timestamp;pressure;altitude;pressure_sealevel;temperature;humidity
19112;BME280;9688;51.906;8.376;2022-09-20T00:00:28;101165.13;;;11.88;87.49
19112;BME280;9688;51.906;8.376;2022-09-20T00:03:33;101160.69;;;11.88;87.37
19112;BME280;9688;51.906;8.376;2022-09-20T00:06:39;101165.00;;;11.91;86.96
19112;BME280;9688;51.906;8.376;2022-09-20T00:09:44;101164.09;;;11.92;87.67
19112;BME280;9688;51.906;8.376;2022-09-20T00:12:48;101168.47;;;11.93;87.45
19112;BME280;9688;51.906;8.376;2022-09-20T00:15:53;101173.03;;;11.89;86.80
19112;BME280;9688;51.906;8.376;2022-09-20T00:18:59;101167.66;;;11.91;86.50
19112;BME280;9688;51.906;8.376;2022-09-20T00:22:07;101166.78;;;11.90;87.02
19112;BME280;9688;51.906;8.376;2022-09-20T00:25:11;101165.94;;;11.90;86.72
19112;BME280;9688;51.906;8.376;2022-09-20T00:28:16;101172.94;;;11.91;86.45
19112;BME280;9688;51.906;8.376;2022-09-20T00:31:20;101172.09;;;11.90;86.98
19112;BME280;9688;51.906;8.376;2022-09-20T00:34:25;101170.41;;;11.88;86.21
19112;BME280;9688;51.906;8.376;2022-09-20T00:37:48;101181.00;;;11.88;86.30
19112;BME280;9688;51.906;8.376;2022-09-20T00:40:53;101185.44;;;11.87;86.69
19112;BME280;9688;51.906;8.376;2022-09-20T00:43:58;101182.84;;;11.86;86.31
19112;BME280;9688;51.906;8.376;2022-09-20T00:47:04;101184.53;;;11.88;87.07
19112;BME280;9688;51.906;8.376;2022-09-20T00:50:23;101188.91;;;11.89;86.60
19112;BME280;9688;51.906;8.376;2022-09-20T00:53:33;101194.03;;;11.94;86.15
19112;BME280;9688;51.906;8.376;2022-09-20T00:56:41;101188.81;;;11.92;86.30
19112;BME280;9688;51.906;8.376;2022-09-20T00:59:47;101192.31;;;11.93;86.05
19112;BME280;9688;51.906;8.376;2022-09-20T01:02:57;101195.81;;;11.93;86.41
19112;BME280;9688;51.906;8.376;2022-09-20T01:06:05;101193.19;;;11.93;86.58
19112;BME280;9688;51.906;8.376;2022-09-20T01:09:13;101184.53;;;11.88;86.12
19112;BME280;9688;51.906;8.376;2022-09-20T01:12:21;101193.41;;;11.87;86.69
19112;BME280;9688;51.906;8.376;2022-09-20T01:15:27;101194.38;;;11.83;86.51
19112;BME280;9688;51.906;8.376;2022-09-20T01:18:34;101186.59;;;11.78;86.77
19112;BME280;9688;51.906;8.376;2022-09-20T01:21:40;101192.91;;;11.74;86.59
19112;BME280;9688;51.906;8.376;2022-09-20T01:24:55;101201.81;;;11.72;86.58
19112;BME280;9688;51.906;8.376;2022-09-20T01:28:06;101205.44;;;11.69;86.81
19112;BME280;9688;51.906;8.376;2022-09-20T01:31:14;101202.03;;;11.66;87.36
19112;BME280;9688;51.906;8.376;2022-09-20T01:34:23;101195.06;;;11.63;87.44
19112;BME280;9688;51.906;8.376;2022-09-20T01:37:34;101194.31;;;11.59;87.61
19112;BME280;9688;51.906;8.376;2022-09-20T01:40:47;101198.03;;;11.54;87.69
19112;BME280;9688;51.906;8.376;2022-09-20T01:44:04;101193.72;;;11.50;87.92
19112;BME280;9688;51.906;8.376;2022-09-20T01:47:16;101191.19;;;11.47;87.82
19112;BME280;9688;51.906;8.376;2022-09-20T01:50:33;101190.44;;;11.43;88.47
19112;BME280;9688;51.906;8.376;2022-09-20T01:54:08;101184.38;;;11.39;87.58
19112;BME280;9688;51.906;8.376;2022-09-20T01:57:36;101188.63;;;11.44;87.42
19112;BME280;9688;51.906;8.376;2022-09-20T02:01:12;101193.94;;;11.44;87.92
19112;BME280;9688;51.906;8.376;2022-09-20T02:08:40;101197.34;;;11.47;88.44
19112;BME280;9688;51.906;8.376;2022-09-20T02:12:04;101200.06;;;11.46;88.31
19112;BME280;9688;51.906;8.376;2022-09-20T02:19:00;101193.94;;;11.44;87.56
19112;BME280;9688;51.906;8.376;2022-09-20T02:22:32;101195.81;;;11.40;88.00
19112;BME280;9688;51.906;8.376;2022-09-20T02:25:49;101204.59;;;11.42;87.94
19112;BME280;9688;51.906;8.376;2022-09-20T02:29:03;101207.13;;;11.45;88.24
19112;BME280;9688;51.906;8.376;2022-09-20T02:32:26;101207.13;;;11.45;87.74
19112;BME280;9688;51.906;8.376;2022-09-20T02:35:45;101199.97;;;11.47;87.80
19112;BME280;9688;51.906;8.376;2022-09-20T02:38:59;101201.84;;;11.45;88.48
19112;BME280;9688;51.906;8.376;2022-09-20T02:42:12;101206.34;;;11.42;88.46
19112;BME280;9688;51.906;8.376;2022-09-20T02:45:25;101198.50;;;11.38;88.67
19112;BME280;9688;51.906;8.376;2022-09-20T02:48:37;101191.47;;;11.39;87.66
19112;BME280;9688;51.906;8.376;2022-09-20T02:51:51;101194.03;;;11.41;88.24
19112;BME280;9688;51.906;8.376;2022-09-20T02:55:04;101197.63;;;11.39;88.27
19112;BME280;9688;51.906;8.376;2022-09-20T02:58:24;101207.25;;;11.42;88.32
19112;BME280;9688;51.906;8.376;2022-09-20T03:01:38;101199.97;;;11.47;88.89
19112;BME280;9688;51.906;8.376;2022-09-20T03:04:54;101197.34;;;11.47;87.79
19112;BME280;9688;51.906;8.376;2022-09-20T03:08:20;101202.69;;;11.46;88.33
19112;BME280;9688;51.906;8.376;2022-09-20T03:11:34;101194.63;;;11.50;87.97
19112;BME280;9688;51.906;8.376;2022-09-20T03:14:45;101194.63;;;11.50;88.63
19112;BME280;9688;51.906;8.376;2022-09-20T03:18:01;101197.19;;;11.52;89.13
19112;BME280;9688;51.906;8.376;2022-09-20T03:21:24;101203.25;;;11.55;88.37
19112;BME280;9688;51.906;8.376;2022-09-20T03:24:42;101209.38;;;11.57;88.78
19112;BME280;9688;51.906;8.376;2022-09-20T03:28:04;101208.41;;;11.60;88.41
19112;BME280;9688;51.906;8.376;2022-09-20T03:31:22;101215.50;;;11.59;89.06
19112;BME280;9688;51.906;8.376;2022-09-20T03:34:42;101212.00;;;11.57;88.35
19112;BME280;9688;51.906;8.376;2022-09-20T03:38:03;101223.47;;;11.58;89.38
19112;BME280;9688;51.906;8.376;2022-09-20T03:41:35;101215.63;;;11.55;88.84
19112;BME280;9688;51.906;8.376;2022-09-20T03:45:14;101223.63;;;11.53;89.12
19112;BME280;9688;51.906;8.376;2022-09-20T03:52:11;101226.28;;;11.53;88.69
19112;BME280;9688;51.906;8.376;2022-09-20T03:59:25;101226.31;;;11.52;88.72
19112;BME280;9688;51.906;8.376;2022-09-20T04:09:58;101232.38;;;11.55;88.30
19112;BME280;9688;51.906;8.376;2022-09-20T04:13:20;101231.50;;;11.55;88.73
19112;BME280;9688;51.906;8.376;2022-09-20T04:16:36;101234.22;;;11.53;87.58
19112;BME280;9688;51.906;8.376;2022-09-20T04:19:47;101229.03;;;11.50;88.08
19112;BME280;9688;51.906;8.376;2022-09-20T04:22:55;101236.19;;;11.47;88.01
19112;BME280;9688;51.906;8.376;2022-09-20T04:26:03;101225.69;;;11.44;87.90
19112;BME280;9688;51.906;8.376;2022-09-20T04:29:23;101224.84;;;11.43;88.38
19112;BME280;9688;51.906;8.376;2022-09-20T04:32:38;101224.94;;;11.40;87.16
19112;BME280;9688;51.906;8.376;2022-09-20T04:35:46;101227.53;;;11.42;87.93
19112;BME280;9688;51.906;8.376;2022-09-20T04:39:22;101227.53;;;11.42;87.41
19112;BME280;9688;51.906;8.376;2022-09-20T04:50:41;101233.09;;;11.34;86.87
19112;BME280;9688;51.906;8.376;2022-09-20T04:57:41;101238.38;;;11.34;86.78
19112;BME280;9688;51.906;8.376;2022-09-20T05:08:32;101243.81;;;11.29;87.62
19112;BME280;9688;51.906;8.376;2022-09-20T05:11:54;101250.75;;;11.33;86.82
19112;BME280;9688;51.906;8.376;2022-09-20T05:18:49;101264.88;;;11.32;86.47
19112;BME280;9688;51.906;8.376;2022-09-20T05:22:27;101268.50;;;11.30;86.97
19112;BME280;9688;51.906;8.376;2022-09-20T05:25:50;101272.09;;;11.27;86.55
19112;BME280;9688;51.906;8.376;2022-09-20T05:29:06;101273.03;;;11.26;87.12
19112;BME280;9688;51.906;8.376;2022-09-20T05:32:21;101268.69;;;11.24;86.46
19112;BME280;9688;51.906;8.376;2022-09-20T05:35:32;101278.41;;;11.23;86.87
19112;BME280;9688;51.906;8.376;2022-09-20T05:38:46;101285.34;;;11.27;86.92
19112;BME280;9688;51.906;8.376;2022-09-20T05:41:57;101280.88;;;11.29;85.92
19112;BME280;9688;51.906;8.376;2022-09-20T05:45:18;101284.34;;;11.31;86.74
19112;BME280;9688;51.906;8.376;2022-09-20T05:48:30;101289.72;;;11.28;86.15
19112;BME280;9688;51.906;8.376;2022-09-20T05:51:53;101302.88;;;11.31;85.96
19112;BME280;9688;51.906;8.376;2022-09-20T05:55:23;101302.66;;;11.39;85.56
19112;BME280;9688;51.906;8.376;2022-09-20T05:58:46;101302.44;;;11.45;86.19
19112;BME280;9688;51.906;8.376;2022-09-20T06:02:08;101298.25;;;11.38;85.67
19112;BME280;9688;51.906;8.376;2022-09-20T06:05:28;101301.06;;;11.33;86.50
19112;BME280;9688;51.906;8.376;2022-09-20T06:08:47;101302.78;;;11.34;86.36
19112;BME280;9688;51.906;8.376;2022-09-20T06:12:11;101311.44;;;11.39;86.40
19112;BME280;9688;51.906;8.376;2022-09-20T06:15:26;101303.53;;;11.38;85.68
19112;BME280;9688;51.906;8.376;2022-09-20T06:18:42;101301.75;;;11.38;85.80
19112;BME280;9688;51.906;8.376;2022-09-20T06:21:51;101303.50;;;11.39;86.35
19112;BME280;9688;51.906;8.376;2022-09-20T06:25:00;101307.22;;;11.34;85.40
19112;BME280;9688;51.906;8.376;2022-09-20T06:28:12;101308.84;;;11.38;85.41
19112;BME280;9688;51.906;8.376;2022-09-20T06:31:19;101319.22;;;11.44;85.47
19112;BME280;9688;51.906;8.376;2022-09-20T06:34:24;101315.69;;;11.45;86.24
19112;BME280;9688;51.906;8.376;2022-09-20T06:37:38;101329.69;;;11.49;85.36
19112;BME280;9688;51.906;8.376;2022-09-20T06:41:03;101330.41;;;11.54;86.14
19112;BME280;9688;51.906;8.376;2022-09-20T06:44:25;101335.50;;;11.60;85.51
19112;BME280;9688;51.906;8.376;2022-09-20T06:47:32;101332.94;;;11.58;84.53
19112;BME280;9688;51.906;8.376;2022-09-20T06:50:37;101331.88;;;11.64;85.23
19112;BME280;9688;51.906;8.376;2022-09-20T06:53:47;101339.63;;;11.70;84.53
19112;BME280;9688;51.906;8.376;2022-09-20T06:56:53;101338.66;;;11.73;85.07
19112;BME280;9688;51.906;8.376;2022-09-20T06:59:57;101338.56;;;11.76;84.38
19112;BME280;9688;51.906;8.376;2022-09-20T07:03:03;101332.19;;;11.81;84.52
19112;BME280;9688;51.906;8.376;2022-09-20T07:06:08;101336.56;;;11.82;84.91
19112;BME280;9688;51.906;8.376;2022-09-20T07:09:13;101336.50;;;11.86;84.80
19112;BME280;9688;51.906;8.376;2022-09-20T07:12:19;101345.13;;;11.92;84.52
19112;BME280;9688;51.906;8.376;2022-09-20T07:15:25;101343.13;;;11.99;83.43
19112;BME280;9688;51.906;8.376;2022-09-20T07:18:37;101346.84;;;11.93;83.78
19112;BME280;9688;51.906;8.376;2022-09-20T07:21:43;101341.53;;;11.95;83.93
19112;BME280;9688;51.906;8.376;2022-09-20T07:24:48;101348.28;;;12.03;84.06
19112;BME280;9688;51.906;8.376;2022-09-20T07:27:55;101349.25;;;12.01;83.69
19112;BME280;9688;51.906;8.376;2022-09-20T07:31:03;101350.88;;;12.05;84.28
19112;BME280;9688;51.906;8.376;2022-09-20T07:34:08;101354.94;;;12.17;83.74
19112;BME280;9688;51.906;8.376;2022-09-20T07:37:15;101359.81;;;12.29;82.58
19112;BME280;9688;51.906;8.376;2022-09-20T07:40:20;101370.16;;;12.37;82.85
19112;BME280;9688;51.906;8.376;2022-09-20T07:43:24;101367.28;;;12.43;82.15
19112;BME280;9688;51.906;8.376;2022-09-20T07:46:29;101370.69;;;12.46;82.88
19112;BME280;9688;51.906;8.376;2022-09-20T07:49:37;101366.94;;;12.54;81.95
19112;BME280;9688;51.906;8.376;2022-09-20T07:52:43;101377.22;;;12.63;81.86
19112;BME280;9688;51.906;8.376;2022-09-20T07:55:58;101370.72;;;12.71;81.57
19112;BME280;9688;51.906;8.376;2022-09-20T07:59:03;101377.31;;;12.85;81.77
19112;BME280;9688;51.906;8.376;2022-09-20T08:02:12;101376.91;;;12.97;81.02
19112;BME280;9688;51.906;8.376;2022-09-20T08:05:19;101380.06;;;13.07;80.98
19112;BME280;9688;51.906;8.376;2022-09-20T08:08:23;101387.59;;;13.19;80.73
19112;BME280;9688;51.906;8.376;2022-09-20T08:11:28;101385.59;;;13.26;80.49
19112;BME280;9688;51.906;8.376;2022-09-20T08:14:33;101390.56;;;13.35;80.00
19112;BME280;9688;51.906;8.376;2022-09-20T08:17:39;101388.31;;;13.48;80.27
19112;BME280;9688;51.906;8.376;2022-09-20T08:20:44;101382.59;;;13.58;79.94
19112;BME280;9688;51.906;8.376;2022-09-20T08:23:50;101378.53;;;13.72;79.63
19112;BME280;9688;51.906;8.376;2022-09-20T08:26:56;101386.00;;;13.84;79.20
19112;BME280;9688;51.906;8.376;2022-09-20T08:30:10;101389.78;;;14.00;78.93
19112;BME280;9688;51.906;8.376;2022-09-20T08:33:20;101391.63;;;13.98;79.04
19112;BME280;9688;51.906;8.376;2022-09-20T08:36:28;101382.38;;;13.87;79.43
19112;BME280;9688;51.906;8.376;2022-09-20T08:39:34;101379.59;;;13.90;79.28
19112;BME280;9688;51.906;8.376;2022-09-20T08:42:41;101386.19;;;14.01;78.79
19112;BME280;9688;51.906;8.376;2022-09-20T08:45:48;101383.84;;;14.16;78.72
19112;BME280;9688;51.906;8.376;2022-09-20T08:48:54;101385.19;;;14.26;78.58
19112;BME280;9688;51.906;8.376;2022-09-20T08:52:02;101389.75;;;14.44;78.26
19112;BME280;9688;51.906;8.376;2022-09-20T08:55:13;101388.75;;;14.69;77.69
19112;BME280;9688;51.906;8.376;2022-09-20T08:58:21;101391.44;;;14.88;76.61
19112;BME280;9688;51.906;8.376;2022-09-20T09:01:27;101392.97;;;14.93;77.05
19112;BME280;9688;51.906;8.376;2022-09-20T09:04:35;101394.31;;;15.04;76.73
19112;BME280;9688;51.906;8.376;2022-09-20T09:07:41;101392.88;;;15.15;76.40
19112;BME280;9688;51.906;8.376;2022-09-20T09:10:48;101390.19;;;15.36;75.48
19112;BME280;9688;51.906;8.376;2022-09-20T09:13:59;101387.66;;;15.52;75.51
19112;BME280;9688;51.906;8.376;2022-09-20T09:17:09;101382.22;;;15.55;75.15
19112;BME280;9688;51.906;8.376;2022-09-20T09:20:19;101387.81;;;15.49;75.26
19112;BME280;9688;51.906;8.376;2022-09-20T09:23:26;101398.31;;;15.52;75.04
19112;BME280;9688;51.906;8.376;2022-09-20T09:26:35;101391.97;;;15.54;74.35
19112;BME280;9688;51.906;8.376;2022-09-20T09:29:48;101395.81;;;15.68;73.79
19112;BME280;9688;51.906;8.376;2022-09-20T09:33:23;101391.44;;;15.86;73.48
19112;BME280;9688;51.906;8.376;2022-09-20T09:36:29;101384.34;;;16.03;72.98
19112;BME280;9688;51.906;8.376;2022-09-20T09:39:36;101390.53;;;16.04;72.99
19112;BME280;9688;51.906;8.376;2022-09-20T09:42:51;101392.97;;;16.09;71.84
19112;BME280;9688;51.906;8.376;2022-09-20T09:46:16;101391.75;;;16.16;71.72
19112;BME280;9688;51.906;8.376;2022-09-20T09:49:25;101390.59;;;16.39;71.18
19112;BME280;9688;51.906;8.376;2022-09-20T09:52:32;101382.22;;;16.64;70.95
19112;BME280;9688;51.906;8.376;2022-09-20T09:56:04;101390.50;;;16.77;69.55
19112;BME280;9688;51.906;8.376;2022-09-20T09:59:24;101395.56;;;16.64;69.70
19112;BME280;9688;51.906;8.376;2022-09-20T10:02:59;101388.72;;;16.58;69.59
19112;BME280;9688;51.906;8.376;2022-09-20T10:06:16;101396.09;;;16.70;69.33
19112;BME280;9688;51.906;8.376;2022-09-20T10:09:35;101393.19;;;16.92;68.86
19112;BME280;9688;51.906;8.376;2022-09-20T10:12:58;101389.59;;;16.93;68.82
19112;BME280;9688;51.906;8.376;2022-09-20T10:16:16;101395.56;;;16.81;68.97
19112;BME280;9688;51.906;8.376;2022-09-20T10:19:44;101393.69;;;16.83;68.49
19112;BME280;9688;51.906;8.376;2022-09-20T10:22:59;101387.94;;;16.91;67.55
19112;BME280;9688;51.906;8.376;2022-09-20T10:26:19;101382.63;;;16.91;67.66
19112;BME280;9688;51.906;8.376;2022-09-20T10:29:39;101376.31;;;16.92;66.30
19112;BME280;9688;51.906;8.376;2022-09-20T10:33:00;101374.66;;;16.72;66.82
19112;BME280;9688;51.906;8.376;2022-09-20T10:36:17;101368.63;;;16.68;66.50
19112;BME280;9688;51.906;8.376;2022-09-20T10:39:30;101373.34;;;16.81;65.60
19112;BME280;9688;51.906;8.376;2022-09-20T10:42:41;101371.44;;;17.00;64.97
19112;BME280;9688;51.906;8.376;2022-09-20T10:46:14;101362.44;;;17.34;63.98
19112;BME280;9688;51.906;8.376;2022-09-20T10:49:35;101359.69;;;17.68;62.98
19112;BME280;9688;51.906;8.376;2022-09-20T10:52:54;101358.88;;;17.83;62.78
19112;BME280;9688;51.906;8.376;2022-09-20T10:56:18;101368.19;;;17.92;62.78
19112;BME280;9688;51.906;8.376;2022-09-20T10:59:39;101378.56;;;17.82;63.28
19112;BME280;9688;51.906;8.376;2022-09-20T11:03:05;101400.69;;;17.52;64.00
19112;BME280;9688;51.906;8.376;2022-09-20T11:06:14;101405.09;;;17.20;64.69
19112;BME280;9688;51.906;8.376;2022-09-20T11:09:23;101409.63;;;16.85;65.72
19112;BME280;9688;51.906;8.376;2022-09-20T11:12:35;101404.09;;;16.36;67.94
19112;BME280;9688;51.906;8.376;2022-09-20T11:15:44;101415.16;;;15.92;69.40
19112;BME280;9688;51.906;8.376;2022-09-20T11:18:58;101420.94;;;15.62;71.06
19112;BME280;9688;51.906;8.376;2022-09-20T11:22:08;101417.03;;;15.31;71.26
19112;BME280;9688;51.906;8.376;2022-09-20T11:25:18;101419.00;;;15.07;71.88
19112;BME280;9688;51.906;8.376;2022-09-20T11:28:27;101418.19;;;14.85;72.89
19112;BME280;9688;51.906;8.376;2022-09-20T11:31:38;101423.25;;;14.70;73.24
19112;BME280;9688;51.906;8.376;2022-09-20T11:34:49;101423.44;;;14.66;73.95
19112;BME280;9688;51.906;8.376;2022-09-20T11:38:04;101419.78;;;14.68;73.47
19112;BME280;9688;51.906;8.376;2022-09-20T11:41:16;101426.09;;;14.66;74.19
19112;BME280;9688;51.906;8.376;2022-09-20T11:44:22;101422.66;;;14.84;73.79
19112;BME280;9688;51.906;8.376;2022-09-20T11:47:30;101423.16;;;14.94;73.80
19112;BME280;9688;51.906;8.376;2022-09-20T11:51:10;101420.50;;;14.94;73.14
19112;BME280;9688;51.906;8.376;2022-09-20T11:54:33;101421.06;;;15.01;73.00
19112;BME280;9688;51.906;8.376;2022-09-20T11:57:42;101422.31;;;15.12;72.95
19112;BME280;9688;51.906;8.376;2022-09-20T12:00:54;101419.97;;;15.25;72.83
19112;BME280;9688;51.906;8.376;2022-09-20T12:04:05;101422.03;;;15.39;72.08
19112;BME280;9688;51.906;8.376;2022-09-20T12:07:17;101425.91;;;15.51;71.59
19112;BME280;9688;51.906;8.376;2022-09-20T12:10:24;101415.91;;;15.56;71.05
19112;BME280;9688;51.906;8.376;2022-09-20T12:13:33;101414.03;;;15.58;71.39
19112;BME280;9688;51.906;8.376;2022-09-20T12:16:41;101408.41;;;15.64;70.79
19112;BME280;9688;51.906;8.376;2022-09-20T12:19:46;101415.28;;;15.70;70.63
19112;BME280;9688;51.906;8.376;2022-09-20T12:26:38;101407.94;;;15.94;70.09
19112;BME280;9688;51.906;8.376;2022-09-20T12:30:03;101412.47;;;15.92;69.85
19112;BME280;9688;51.906;8.376;2022-09-20T12:33:18;101407.50;;;16.03;69.24
19112;BME280;9688;51.906;8.376;2022-09-20T12:36:25;101402.97;;;16.22;68.72
19112;BME280;9688;51.906;8.376;2022-09-20T12:39:33;101405.66;;;16.22;68.51
19112;BME280;9688;51.906;8.376;2022-09-20T12:42:40;101403.19;;;16.18;68.32
19112;BME280;9688;51.906;8.376;2022-09-20T12:45:51;101401.88;;;16.26;67.30
19112;BME280;9688;51.906;8.376;2022-09-20T12:49:29;101396.84;;;16.38;67.23
19112;BME280;9688;51.906;8.376;2022-09-20T12:52:54;101404.88;;;16.72;66.17
19112;BME280;9688;51.906;8.376;2022-09-20T12:56:06;101406.31;;;16.97;65.28
19112;BME280;9688;51.906;8.376;2022-09-20T12:59:21;101411.41;;;17.19;64.15
19112;BME280;9688;51.906;8.376;2022-09-20T13:02:58;101397.56;;;17.44;64.02
19112;BME280;9688;51.906;8.376;2022-09-20T13:06:23;101396.59;;;17.45;63.84
19112;BME280;9688;51.906;8.376;2022-09-20T13:09:27;101415.50;;;17.42;64.30
19112;BME280;9688;51.906;8.376;2022-09-20T13:12:38;101413.59;;;17.11;65.77
19112;BME280;9688;51.906;8.376;2022-09-20T13:15:49;101410.50;;;16.85;66.84
19112;BME280;9688;51.906;8.376;2022-09-20T13:19:01;101413.06;;;16.69;67.38
19112;BME280;9688;51.906;8.376;2022-09-20T13:22:12;101415.09;;;16.64;68.01
19112;BME280;9688;51.906;8.376;2022-09-20T13:25:20;101410.63;;;16.65;68.44
19112;BME280;9688;51.906;8.376;2022-09-20T13:28:33;101416.75;;;16.67;67.84
19112;BME280;9688;51.906;8.376;2022-09-20T13:31:41;101405.28;;;16.65;68.33
19112;BME280;9688;51.906;8.376;2022-09-20T13:35:05;101401.75;;;16.64;68.43
19112;BME280;9688;51.906;8.376;2022-09-20T13:38:10;101413.91;;;16.70;68.64
19112;BME280;9688;51.906;8.376;2022-09-20T13:41:16;101424.28;;;16.76;68.18
19112;BME280;9688;51.906;8.376;2022-09-20T13:44:23;101410.06;;;16.58;68.03
19112;BME280;9688;51.906;8.376;2022-09-20T13:47:30;101408.81;;;16.48;68.49
19112;BME280;9688;51.906;8.376;2022-09-20T13:50:36;101409.13;;;16.42;68.36
19112;BME280;9688;51.906;8.376;2022-09-20T13:53:44;101406.94;;;16.33;68.18
19112;BME280;9688;51.906;8.376;2022-09-20T13:56:49;101402.34;;;16.35;68.05
19112;BME280;9688;51.906;8.376;2022-09-20T13:59:56;101406.78;;;16.36;67.88
19112;BME280;9688;51.906;8.376;2022-09-20T14:03:02;101406.63;;;16.56;67.39
19112;BME280;9688;51.906;8.376;2022-09-20T14:06:11;101402.69;;;16.98;66.64
19112;BME280;9688;51.906;8.376;2022-09-20T14:09:22;101405.13;;;17.36;65.96
19112;BME280;9688;51.906;8.376;2022-09-20T14:12:29;101405.25;;;17.50;65.89
19112;BME280;9688;51.906;8.376;2022-09-20T14:15:40;101406.09;;;17.51;65.31
19112;BME280;9688;51.906;8.376;2022-09-20T14:18:46;101406.09;;;17.51;65.20
19112;BME280;9688;51.906;8.376;2022-09-20T14:21:51;101412.56;;;17.47;65.37
19112;BME280;9688;51.906;8.376;2022-09-20T14:24:59;101408.31;;;17.43;64.80
19112;BME280;9688;51.906;8.376;2022-09-20T14:28:15;101413.41;;;17.31;65.05
19112;BME280;9688;51.906;8.376;2022-09-20T14:31:26;101411.41;;;17.19;65.13
19112;BME280;9688;51.906;8.376;2022-09-20T14:34:35;101420.25;;;17.20;65.45
19112;BME280;9688;51.906;8.376;2022-09-20T14:37:43;101427.75;;;17.13;65.76
19112;BME280;9688;51.906;8.376;2022-09-20T14:40:50;101426.28;;;17.07;65.61
19112;BME280;9688;51.906;8.376;2022-09-20T14:43:58;101418.31;;;17.06;65.80
19112;BME280;9688;51.906;8.376;2022-09-20T14:47:14;101419.19;;;17.06;65.81
19112;BME280;9688;51.906;8.376;2022-09-20T14:50:23;101420.94;;;17.07;65.31
19112;BME280;9688;51.906;8.376;2022-09-20T14:53:29;101425.38;;;17.07;66.02
19112;BME280;9688;51.906;8.376;2022-09-20T14:56:38;101428.84;;;17.09;65.68
19112;BME280;9688;51.906;8.376;2022-09-20T14:59:54;101426.56;;;17.01;66.13
19112;BME280;9688;51.906;8.376;2022-09-20T15:03:04;101421.88;;;16.89;65.88
19112;BME280;9688;51.906;8.376;2022-09-20T15:06:12;101419.25;;;16.70;66.04
19112;BME280;9688;51.906;8.376;2022-09-20T15:09:19;101421.72;;;16.57;65.83
19112;BME280;9688;51.906;8.376;2022-09-20T15:12:25;101423.75;;;16.52;65.59
19112;BME280;9688;51.906;8.376;2022-09-20T15:15:32;101426.84;;;16.43;65.32
19112;BME280;9688;51.906;8.376;2022-09-20T15:18:41;101428.50;;;16.45;65.01
19112;BME280;9688;51.906;8.376;2022-09-20T15:21:47;101423.66;;;16.54;64.06
19112;BME280;9688;51.906;8.376;2022-09-20T15:24:52;101425.78;;;16.47;63.64
19112;BME280;9688;51.906;8.376;2022-09-20T15:27:57;101431.34;;;16.42;64.26
19112;BME280;9688;51.906;8.376;2022-09-20T15:31:03;101425.69;;;16.48;63.56
19112;BME280;9688;51.906;8.376;2022-09-20T15:34:09;101427.06;;;16.57;63.03
19112;BME280;9688;51.906;8.376;2022-09-20T15:37:16;101429.72;;;16.57;62.69
19112;BME280;9688;51.906;8.376;2022-09-20T15:40:21;101423.66;;;16.54;62.27
19112;BME280;9688;51.906;8.376;2022-09-20T15:43:26;101431.97;;;16.47;62.79
19112;BME280;9688;51.906;8.376;2022-09-20T15:46:33;101423.69;;;16.35;62.69
19112;BME280;9688;51.906;8.376;2022-09-20T15:49:39;101425.66;;;16.31;62.67
19112;BME280;9688;51.906;8.376;2022-09-20T15:52:49;101418.84;;;16.25;62.36
19112;BME280;9688;51.906;8.376;2022-09-20T15:55:54;101421.00;;;16.17;62.75
19112;BME280;9688;51.906;8.376;2022-09-20T15:59:01;101421.69;;;16.03;63.28
19112;BME280;9688;51.906;8.376;2022-09-20T16:02:08;101429.28;;;15.94;63.44
19112;BME280;9688;51.906;8.376;2022-09-20T16:05:14;101432.22;;;15.88;64.09
19112;BME280;9688;51.906;8.376;2022-09-20T16:08:18;101436.84;;;15.84;64.07
19112;BME280;9688;51.906;8.376;2022-09-20T16:11:23;101441.47;;;15.80;64.62
19112;BME280;9688;51.906;8.376;2022-09-20T16:14:30;101441.59;;;15.77;65.07
19112;BME280;9688;51.906;8.376;2022-09-20T16:17:34;101440.94;;;15.72;65.67
19112;BME280;9688;51.906;8.376;2022-09-20T16:21:06;101445.56;;;15.69;66.08
19112;BME280;9688;51.906;8.376;2022-09-20T16:24:10;101454.44;;;15.68;66.23
19112;BME280;9688;51.906;8.376;2022-09-20T16:27:15;101453.59;;;15.67;66.22
19112;BME280;9688;51.906;8.376;2022-09-20T16:30:20;101450.91;;;15.67;66.48
19112;BME280;9688;51.906;8.376;2022-09-20T16:33:25;101449.22;;;15.66;66.90
19112;BME280;9688;51.906;8.376;2022-09-20T16:36:31;101453.75;;;15.64;66.73
19112;BME280;9688;51.906;8.376;2022-09-20T16:39:37;101447.84;;;15.57;66.81
19112;BME280;9688;51.906;8.376;2022-09-20T16:42:43;101449.84;;;15.52;67.63
19112;BME280;9688;51.906;8.376;2022-09-20T16:45:57;101455.44;;;15.46;67.51
19112;BME280;9688;51.906;8.376;2022-09-20T16:49:04;101449.47;;;15.41;67.56
19112;BME280;9688;51.906;8.376;2022-09-20T16:52:11;101457.81;;;15.33;68.08
19112;BME280;9688;51.906;8.376;2022-09-20T16:55:16;101458.81;;;15.31;67.99
19112;BME280;9688;51.906;8.376;2022-09-20T16:58:26;101461.66;;;15.26;67.90
19112;BME280;9688;51.906;8.376;2022-09-20T17:01:32;101463.59;;;15.23;67.69
19112;BME280;9688;51.906;8.376;2022-09-20T17:04:39;101468.97;;;15.21;67.77
19112;BME280;9688;51.906;8.376;2022-09-20T17:07:46;101472.72;;;15.17;67.00
19112;BME280;9688;51.906;8.376;2022-09-20T17:10:51;101479.09;;;15.13;67.12
19112;BME280;9688;51.906;8.376;2022-09-20T17:13:57;101479.38;;;15.07;66.94
19112;BME280;9688;51.906;8.376;2022-09-20T17:17:01;101482.31;;;15.01;67.38
19112;BME280;9688;51.906;8.376;2022-09-20T17:20:07;101481.50;;;14.99;66.98
19112;BME280;9688;51.906;8.376;2022-09-20T17:23:12;101487.19;;;14.91;67.06
19112;BME280;9688;51.906;8.376;2022-09-20T17:26:19;101489.22;;;14.84;67.26
19112;BME280;9688;51.906;8.376;2022-09-20T17:29:25;101499.28;;;14.78;67.33
19112;BME280;9688;51.906;8.376;2022-09-20T17:32:29;101500.44;;;14.70;67.85
19112;BME280;9688;51.906;8.376;2022-09-20T17:35:35;101502.50;;;14.64;67.70
19112;BME280;9688;51.906;8.376;2022-09-20T17:38:41;101509.84;;;14.57;68.02
19112;BME280;9688;51.906;8.376;2022-09-20T17:41:47;101502.88;;;14.55;68.33
19112;BME280;9688;51.906;8.376;2022-09-20T17:44:52;101506.69;;;14.47;68.87